sensor_id;sensor_type;location;lat;lon;timestamp;pressure;altitude;pressure_sealevel;temperature;humidity
13767;BME280;47980;48.794;9.176;2023-04-19T00:00:57;98795.28;;;11.60;80.65
13767;BME280;47980;48.794;9.176;2023-04-19T00:03:30;98799.16;;;11.11;84.67
13767;BME280;47980;48.794;9.176;2023-04-19T00:06:03;98798.41;;;11.19;83.88
13767;BME280;47980;48.794;9.176;2023-04-19T00:08:37;98798.06;;;11.29;83.17
13767;BME280;47980;48.794;9.176;2023-04-19T00:11:09;98791.69;;;11.39;81.60
13767;BME280;47980;48.794;9.176;2023-04-19T00:13:40;98798.22;;;11.32;82.98
13767;BME280;47980;48.794;9.176;2023-04-19T00:16:12;98796.22;;;11.47;82.50
13767;BME280;47980;48.794;9.176;2023-04-19T00:18:43;98794.97;;;11.36;81.54
13767;BME280;47980;48.794;9.176;2023-04-19T00:21:17;98789.63;;;11.01;84.07
13767;BME280;47980;48.794;9.176;2023-04-19T00:23:48;98790.28;;;11.41;83.14
13767;BME280;47980;48.794;9.176;2023-04-19T00:26:20;98781.03;;;11.65;81.45
13767;BME280;47980;48.794;9.176;2023-04-19T00:28:51;98786.03;;;11.14;83.98
13767;BME280;47980;48.794;9.176;2023-04-19T00:31:23;98780.56;;;11.02;84.68
13767;BME280;47980;48.794;9.176;2023-04-19T00:33:55;98787.00;;;11.36;82.07
13767;BME280;47980;48.794;9.176;2023-04-19T00:36:28;98789.66;;;11.36;82.73
13767;BME280;47980;48.794;9.176;2023-04-19T00:38:59;98794.03;;;11.31;84.02
13767;BME280;47980;48.794;9.176;2023-04-19T00:41:31;98783.53;;;11.18;84.55
13767;BME280;47980;48.794;9.176;2023-04-19T00:44:03;98783.84;;;10.99;84.28
13767;BME280;47980;48.794;9.176;2023-04-19T00:46:35;98786.66;;;11.28;83.00
13767;BME280;47980;48.794;9.176;2023-04-19T00:49:08;98781.34;;;11.54;81.76
13767;BME280;47980;48.794;9.176;2023-04-19T00:51:41;98777.16;;;11.27;82.92
13767;BME280;47980;48.794;9.176;2023-04-19T00:54:13;98779.94;;;11.14;83.89
13767;BME280;47980;48.794;9.176;2023-04-19T00:56:45;98776.22;;;11.41;82.29
13767;BME280;47980;48.794;9.176;2023-04-19T00:59:17;98774.97;;;11.29;82.72
13767;BME280;47980;48.794;9.176;2023-04-19T01:01:49;98776.06;;;11.28;83.01
13767;BME280;47980;48.794;9.176;2023-04-19T01:04:20;98766.22;;;11.29;83.40
13767;BME280;47980;48.794;9.176;2023-04-19T01:06:53;98772.94;;;11.26;81.71
13767;BME280;47980;48.794;9.176;2023-04-19T01:09:25;98777.16;;;11.27;83.50
13767;BME280;47980;48.794;9.176;2023-04-19T01:11:56;98762.78;;;11.37;82.20
13767;BME280;47980;48.794;9.176;2023-04-19T01:14:28;98766.47;;;10.93;85.29
13767;BME280;47980;48.794;9.176;2023-04-19T01:16:59;98767.94;;;11.25;83.09
13767;BME280;47980;48.794;9.176;2023-04-19T01:19:31;98761.34;;;10.96;85.82
13767;BME280;47980;48.794;9.176;2023-04-19T01:22:05;98756.22;;;11.17;83.75
13767;BME280;47980;48.794;9.176;2023-04-19T01:24:38;98762.16;;;11.23;82.18
13767;BME280;47980;48.794;9.176;2023-04-19T01:27:09;98755.28;;;11.39;81.63
13767;BME280;47980;48.794;9.176;2023-04-19T01:29:43;98758.53;;;11.10;82.64
13767;BME280;47980;48.794;9.176;2023-04-19T01:32:14;98750.25;;;10.94;83.11
13767;BME280;47980;48.794;9.176;2023-04-19T01:34:47;98750.88;;;10.91;85.29
13767;BME280;47980;48.794;9.176;2023-04-19T01:37:18;98743.88;;;11.21;84.16
13767;BME280;47980;48.794;9.176;2023-04-19T01:39:51;98747.00;;;10.97;85.11
13767;BME280;47980;48.794;9.176;2023-04-19T01:42:23;98741.06;;;11.00;84.27
13767;BME280;47980;48.794;9.176;2023-04-19T01:44:55;98744.00;;;10.90;84.04
13767;BME280;47980;48.794;9.176;2023-04-19T01:47:26;98744.34;;;10.97;84.48
13767;BME280;47980;48.794;9.176;2023-04-19T01:49:58;98735.59;;;11.14;84.90
13767;BME280;47980;48.794;9.176;2023-04-19T01:52:29;98743.41;;;10.93;84.19
13767;BME280;47980;48.794;9.176;2023-04-19T01:55:03;98737.75;;;10.86;86.34
13767;BME280;47980;48.794;9.176;2023-04-19T01:57:34;98736.66;;;10.87;86.14
13767;BME280;47980;48.794;9.176;2023-04-19T02:00:07;98736.53;;;11.09;84.43
13767;BME280;47980;48.794;9.176;2023-04-19T02:02:39;98733.97;;;10.70;85.99
13767;BME280;47980;48.794;9.176;2023-04-19T02:05:10;98733.22;;;10.87;85.16
13767;BME280;47980;48.794;9.176;2023-04-19T02:07:42;98725.56;;;10.76;84.83
13767;BME280;47980;48.794;9.176;2023-04-19T02:10:14;98725.06;;;10.57;86.76
13767;BME280;47980;48.794;9.176;2023-04-19T02:12:46;98722.75;;;10.64;86.79
13767;BME280;47980;48.794;9.176;2023-04-19T02:15:17;98726.22;;;10.91;85.34
13767;BME280;47980;48.794;9.176;2023-04-19T02:17:49;98718.53;;;10.89;85.77
13767;BME280;47980;48.794;9.176;2023-04-19T02:20:20;98714.00;;;10.72;84.86
13767;BME280;47980;48.794;9.176;2023-04-19T02:22:53;98710.56;;;10.80;86.46
13767;BME280;47980;48.794;9.176;2023-04-19T02:25:27;98703.22;;;10.77;85.93
13767;BME280;47980;48.794;9.176;2023-04-19T02:27:58;98704.81;;;10.87;86.35
13767;BME280;47980;48.794;9.176;2023-04-19T02:30:30;98699.63;;;10.82;84.82
13767;BME280;47980;48.794;9.176;2023-04-19T02:33:01;98689.31;;;10.63;87.05
13767;BME280;47980;48.794;9.176;2023-04-19T02:35:33;98697.28;;;10.63;87.35
13767;BME280;47980;48.794;9.176;2023-04-19T02:38:04;98697.97;;;10.29;88.78
13767;BME280;47980;48.794;9.176;2023-04-19T02:40:37;98702.44;;;10.68;86.52
13767;BME280;47980;48.794;9.176;2023-04-19T02:43:09;98702.25;;;10.56;87.51
13767;BME280;47980;48.794;9.176;2023-04-19T02:45:40;98695.25;;;10.60;86.74
13767;BME280;47980;48.794;9.176;2023-04-19T02:48:12;98701.03;;;10.53;87.44
13767;BME280;47980;48.794;9.176;2023-04-19T02:50:43;98693.06;;;10.53;88.43
13767;BME280;47980;48.794;9.176;2023-04-19T02:53:15;98697.22;;;10.37;89.50
13767;BME280;47980;48.794;9.176;2023-04-19T02:55:47;98701.53;;;10.73;87.11
13767;BME280;47980;48.794;9.176;2023-04-19T02:58:19;98695.13;;;10.82;86.25
13767;BME280;47980;48.794;9.176;2023-04-19T03:00:51;98695.72;;;10.62;87.39
13767;BME280;47980;48.794;9.176;2023-04-19T03:03:22;98697.97;;;10.29;88.51
13767;BME280;47980;48.794;9.176;2023-04-19T03:05:54;98690.53;;;10.48;88.38
13767;BME280;47980;48.794;9.176;2023-04-19T03:08:25;98683.19;;;10.45;88.46
13767;BME280;47980;48.794;9.176;2023-04-19T03:10:58;98689.94;;;10.60;87.04
13767;BME280;47980;48.794;9.176;2023-04-19T03:13:30;98691.47;;;10.44;87.27
13767;BME280;47980;48.794;9.176;2023-04-19T03:16:01;98685.28;;;10.57;87.14
13767;BME280;47980;48.794;9.176;2023-04-19T03:18:33;98689.19;;;10.68;87.33
13767;BME280;47980;48.794;9.176;2023-04-19T03:21:05;98685.44;;;10.69;85.48
13767;BME280;47980;48.794;9.176;2023-04-19T03:23:38;98683.22;;;10.54;87.06
13767;BME280;47980;48.794;9.176;2023-04-19T03:26:11;98684.16;;;10.58;87.34
13767;BME280;47980;48.794;9.176;2023-04-19T03:28:43;98688.69;;;10.66;86.16
13767;BME280;47980;48.794;9.176;2023-04-19T03:31:14;98685.91;;;10.71;85.91
13767;BME280;47980;48.794;9.176;2023-04-19T03:33:46;98684.66;;;10.69;84.67
13767;BME280;47980;48.794;9.176;2023-04-19T03:36:17;98682.31;;;10.76;86.04
13767;BME280;47980;48.794;9.176;2023-04-19T03:38:49;98678.84;;;10.49;87.85
13767;BME280;47980;48.794;9.176;2023-04-19T03:41:24;98673.72;;;10.62;86.31
13767;BME280;47980;48.794;9.176;2023-04-19T03:43:55;98670.13;;;10.57;87.75
13767;BME280;47980;48.794;9.176;2023-04-19T03:46:27;98674.16;;;10.55;87.38
13767;BME280;47980;48.794;9.176;2023-04-19T03:49:00;98669.09;;;10.27;88.00
13767;BME280;47980;48.794;9.176;2023-04-19T03:51:32;98669.75;;;10.33;88.60
13767;BME280;47980;48.794;9.176;2023-04-19T03:54:03;98673.53;;;10.41;88.53
13767;BME280;47980;48.794;9.176;2023-04-19T03:56:36;98670.25;;;10.35;89.25
13767;BME280;47980;48.794;9.176;2023-04-19T03:59:08;98676.94;;;10.41;87.77
13767;BME280;47980;48.794;9.176;2023-04-19T04:01:39;98670.00;;;10.14;91.09
13767;BME280;47980;48.794;9.176;2023-04-19T04:04:11;98671.72;;;10.19;89.63
13767;BME280;47980;48.794;9.176;2023-04-19T04:06:43;98671.72;;;10.19;88.79
13767;BME280;47980;48.794;9.176;2023-04-19T04:09:14;98668.72;;;10.11;89.53
13767;BME280;47980;48.794;9.176;2023-04-19T04:11:47;98665.09;;;9.99;89.39
13767;BME280;47980;48.794;9.176;2023-04-19T04:14:19;98668.47;;;9.91;90.49
13767;BME280;47980;48.794;9.176;2023-04-19T04:16:50;98667.72;;;9.90;90.32
13767;BME280;47980;48.794;9.176;2023-04-19T04:19:22;98669.56;;;9.89;90.52
13767;BME280;47980;48.794;9.176;2023-04-19T04:21:53;98671.31;;;9.94;89.94
13767;BME280;47980;48.794;9.176;2023-04-19T04:24:25;98672.53;;;9.88;91.69
13767;BME280;47980;48.794;9.176;2023-04-19T04:26:58;98668.91;;;9.84;92.90
13767;BME280;47980;48.794;9.176;2023-04-19T04:29:31;98667.25;;;9.88;92.39
13767;BME280;47980;48.794;9.176;2023-04-19T04:32:04;98669.41;;;9.86;92.42
13767;BME280;47980;48.794;9.176;2023-04-19T04:34:37;98673.91;;;9.77;91.10
13767;BME280;47980;48.794;9.176;2023-04-19T04:37:08;98670.00;;;9.83;90.62
13767;BME280;47980;48.794;9.176;2023-04-19T04:39:40;98666.22;;;10.06;88.85
13767;BME280;47980;48.794;9.176;2023-04-19T04:42:13;98666.41;;;9.79;90.47
13767;BME280;47980;48.794;9.176;2023-04-19T04:44:45;98671.00;;;9.64;93.60
13767;BME280;47980;48.794;9.176;2023-04-19T04:47:17;98672.56;;;9.65;92.80
13767;BME280;47980;48.794;9.176;2023-04-19T04:49:48;98671.84;;;9.74;92.04
13767;BME280;47980;48.794;9.176;2023-04-19T04:52:21;98676.75;;;9.89;91.60
13767;BME280;47980;48.794;9.176;2023-04-19T04:54:53;98679.81;;;9.74;91.05
13767;BME280;47980;48.794;9.176;2023-04-19T04:57:26;98681.84;;;9.77;90.98
13767;BME280;47980;48.794;9.176;2023-04-19T04:59:57;98681.47;;;10.01;89.07
13767;BME280;47980;48.794;9.176;2023-04-19T05:02:29;98678.13;;;10.18;88.33
13767;BME280;47980;48.794;9.176;2023-04-19T05:05:00;98689.59;;;10.04;90.80
13767;BME280;47980;48.794;9.176;2023-04-19T05:07:32;98682.94;;;10.16;87.97
13767;BME280;47980;48.794;9.176;2023-04-19T05:10:04;98682.16;;;10.24;87.54
13767;BME280;47980;48.794;9.176;2023-04-19T05:12:37;98685.00;;;10.27;86.72
13767;BME280;47980;48.794;9.176;2023-04-19T05:15:09;98682.81;;;10.21;87.74
13767;BME280;47980;48.794;9.176;2023-04-19T05:17:42;98685.00;;;10.27;87.85
13767;BME280;47980;48.794;9.176;2023-04-19T05:20:13;98684.41;;;10.30;87.20
13767;BME280;47980;48.794;9.176;2023-04-19T05:22:45;98694.91;;;10.44;84.64
13767;BME280;47980;48.794;9.176;2023-04-19T05:25:16;98693.69;;;10.50;85.35
13767;BME280;47980;48.794;9.176;2023-04-19T05:27:49;98688.81;;;10.44;85.40
13767;BME280;47980;48.794;9.176;2023-04-19T05:30:21;98692.16;;;10.18;84.99
13767;BME280;47980;48.794;9.176;2023-04-19T05:32:52;98700.69;;;10.46;85.85
13767;BME280;47980;48.794;9.176;2023-04-19T05:35:24;98703.63;;;10.05;86.49
13767;BME280;47980;48.794;9.176;2023-04-19T05:37:55;98692.44;;;10.17;87.43
13767;BME280;47980;48.794;9.176;2023-04-19T05:40:27;98691.91;;;10.37;84.09
13767;BME280;47980;48.794;9.176;2023-04-19T05:43:00;98696.06;;;10.21;86.71
13767;BME280;47980;48.794;9.176;2023-04-19T05:45:31;98694.03;;;10.18;86.01
13767;BME280;47980;48.794;9.176;2023-04-19T05:48:03;98698.41;;;10.22;85.16
13767;BME280;47980;48.794;9.176;2023-04-19T05:50:36;98701.56;;;9.93;86.42
13767;BME280;47980;48.794;9.176;2023-04-19T05:53:10;98707.88;;;10.15;88.02
13767;BME280;47980;48.794;9.176;2023-04-19T05:55:42;98701.03;;;10.22;86.07
13767;BME280;47980;48.794;9.176;2023-04-19T05:58:16;98700.34;;;10.39;85.34
13767;BME280;47980;48.794;9.176;2023-04-19T06:00:48;98700.72;;;10.15;85.17
13767;BME280;47980;48.794;9.176;2023-04-19T06:03:20;98701.53;;;10.24;86.23
13767;BME280;47980;48.794;9.176;2023-04-19T06:05:51;98702.06;;;10.35;84.37
13767;BME280;47980;48.794;9.176;2023-04-19T06:08:23;98699.19;;;10.71;82.40
13767;BME280;47980;48.794;9.176;2023-04-19T06:10:54;98702.13;;;10.70;82.12
13767;BME280;47980;48.794;9.176;2023-04-19T06:13:27;98701.47;;;10.55;82.92
13767;BME280;47980;48.794;9.176;2023-04-19T06:15:59;98700.13;;;10.75;81.70
13767;BME280;47980;48.794;9.176;2023-04-19T06:18:31;98703.22;;;10.77;80.55
13767;BME280;47980;48.794;9.176;2023-04-19T06:21:02;98707.03;;;11.11;79.90
13767;BME280;47980;48.794;9.176;2023-04-19T06:23:35;98705.13;;;10.94;80.89
13767;BME280;47980;48.794;9.176;2023-04-19T06:26:07;98700.44;;;10.91;80.45
13767;BME280;47980;48.794;9.176;2023-04-19T06:28:39;98708.88;;;11.19;79.15
13767;BME280;47980;48.794;9.176;2023-04-19T06:31:11;98697.97;;;11.12;79.71
13767;BME280;47980;48.794;9.176;2023-04-19T06:33:42;98702.00;;;11.44;76.86
13767;BME280;47980;48.794;9.176;2023-04-19T06:36:15;98700.94;;;11.19;77.82
13767;BME280;47980;48.794;9.176;2023-04-19T06:38:46;98702.78;;;11.01;79.72
13767;BME280;47980;48.794;9.176;2023-04-19T06:41:19;98698.09;;;11.07;79.36
13767;BME280;47980;48.794;9.176;2023-04-19T06:43:52;98696.38;;;11.20;80.61
13767;BME280;47980;48.794;9.176;2023-04-19T06:46:26;98704.81;;;11.22;77.60
13767;BME280;47980;48.794;9.176;2023-04-19T06:48:58;98701.06;;;11.31;79.33
13767;BME280;47980;48.794;9.176;2023-04-19T06:51:29;98701.69;;;10.94;80.70
13767;BME280;47980;48.794;9.176;2023-04-19T06:54:01;98702.31;;;11.17;79.43
13767;BME280;47980;48.794;9.176;2023-04-19T06:56:40;98698.56;;;11.26;79.21
13767;BME280;47980;48.794;9.176;2023-04-19T06:59:16;98703.69;;;11.57;77.40
13767;BME280;47980;48.794;9.176;2023-04-19T07:01:48;98703.81;;;11.61;75.84
13767;BME280;47980;48.794;9.176;2023-04-19T07:04:20;98709.75;;;11.75;75.95
13767;BME280;47980;48.794;9.176;2023-04-19T07:06:51;98702.31;;;11.51;76.11
13767;BME280;47980;48.794;9.176;2023-04-19T07:09:23;98703.31;;;11.94;74.98
13767;BME280;47980;48.794;9.176;2023-04-19T07:11:55;98704.31;;;11.54;77.68
13767;BME280;47980;48.794;9.176;2023-04-19T07:14:28;98699.63;;;11.60;76.25
13767;BME280;47980;48.794;9.176;2023-04-19T07:17:00;98690.72;;;12.12;73.88
13767;BME280;47980;48.794;9.176;2023-04-19T07:19:31;98690.56;;;12.17;74.40
13767;BME280;47980;48.794;9.176;2023-04-19T07:22:04;98690.72;;;12.41;74.05
13767;BME280;47980;48.794;9.176;2023-04-19T07:24:36;98689.97;;;12.41;72.40
13767;BME280;47980;48.794;9.176;2023-04-19T07:27:16;98688.06;;;12.41;71.23
13767;BME280;47980;48.794;9.176;2023-04-19T07:29:51;98691.63;;;12.96;69.97
13767;BME280;47980;48.794;9.176;2023-04-19T07:32:22;98684.56;;;12.79;69.47
13767;BME280;47980;48.794;9.176;2023-04-19T07:34:54;98689.81;;;12.88;69.79
13767;BME280;47980;48.794;9.176;2023-04-19T07:37:25;98680.25;;;13.29;68.91
13767;BME280;47980;48.794;9.176;2023-04-19T07:39:57;98675.91;;;13.03;69.71
13767;BME280;47980;48.794;9.176;2023-04-19T07:42:28;98677.66;;;12.57;71.39
13767;BME280;47980;48.794;9.176;2023-04-19T07:45:01;98677.19;;;12.55;71.98
13767;BME280;47980;48.794;9.176;2023-04-19T07:47:33;98684.47;;;12.67;70.09
13767;BME280;47980;48.794;9.176;2023-04-19T07:50:06;98672.31;;;13.20;70.07
13767;BME280;47980;48.794;9.176;2023-04-19T07:52:37;98674.72;;;13.67;65.99
13767;BME280;47980;48.794;9.176;2023-04-19T07:55:09;98673.00;;;12.96;68.47
13767;BME280;47980;48.794;9.176;2023-04-19T07:57:40;98672.22;;;13.49;68.25
13767;BME280;47980;48.794;9.176;2023-04-19T08:00:17;98661.94;;;13.06;66.44
13767;BME280;47980;48.794;9.176;2023-04-19T08:02:50;98664.97;;;13.17;68.78
13767;BME280;47980;48.794;9.176;2023-04-19T08:05:22;98658.91;;;13.49;66.72
13767;BME280;47980;48.794;9.176;2023-04-19T08:07:53;98666.19;;;13.73;65.76
13767;BME280;47980;48.794;9.176;2023-04-19T08:10:26;98656.75;;;13.88;65.14
13767;BME280;47980;48.794;9.176;2023-04-19T08:12:59;98651.53;;;14.29;64.86
13767;BME280;47980;48.794;9.176;2023-04-19T08:15:33;98654.19;;;14.29;64.94
13767;BME280;47980;48.794;9.176;2023-04-19T08:18:04;98652.63;;;14.40;64.42
13767;BME280;47980;48.794;9.176;2023-04-19T08:20:36;98657.44;;;13.40;65.29
13767;BME280;47980;48.794;9.176;2023-04-19T08:23:08;98655.09;;;13.84;63.29
13767;BME280;47980;48.794;9.176;2023-04-19T08:25:40;98657.22;;;13.45;64.56
13767;BME280;47980;48.794;9.176;2023-04-19T08:28:12;98657.56;;;14.13;62.68
13767;BME280;47980;48.794;9.176;2023-04-19T08:30:45;98640.94;;;14.69;60.32
13767;BME280;47980;48.794;9.176;2023-04-19T08:33:16;98655.44;;;13.94;62.19
13767;BME280;47980;48.794;9.176;2023-04-19T08:35:48;98665.84;;;13.30;62.57
13767;BME280;47980;48.794;9.176;2023-04-19T08:38:20;98659.44;;;13.43;62.06
13767;BME280;47980;48.794;9.176;2023-04-19T08:40:52;98656.00;;;13.21;62.49
13767;BME280;47980;48.794;9.176;2023-04-19T08:43:24;98645.75;;;13.90;62.43
13767;BME280;47980;48.794;9.176;2023-04-19T08:46:04;98651.06;;;13.90;61.02
13767;BME280;47980;48.794;9.176;2023-04-19T08:48:35;98641.41;;;13.85;61.75
13767;BME280;47980;48.794;9.176;2023-04-19T08:51:08;98639.25;;;13.54;62.39
13767;BME280;47980;48.794;9.176;2023-04-19T08:53:40;98644.25;;;13.56;64.03
13767;BME280;47980;48.794;9.176;2023-04-19T08:56:12;98635.72;;;13.62;62.31
13767;BME280;47980;48.794;9.176;2023-04-19T08:58:45;98644.38;;;13.59;63.90
13767;BME280;47980;48.794;9.176;2023-04-19T09:01:18;98644.91;;;13.40;64.29
13767;BME280;47980;48.794;9.176;2023-04-19T09:03:50;98632.84;;;13.80;62.48
13767;BME280;47980;48.794;9.176;2023-04-19T09:06:22;98633.13;;;13.41;61.86
13767;BME280;47980;48.794;9.176;2023-04-19T09:09:12;98634.59;;;13.51;62.91
13767;BME280;47980;48.794;9.176;2023-04-19T09:11:44;98624.38;;;13.53;61.60
13767;BME280;47980;48.794;9.176;2023-04-19T09:14:18;98628.50;;;13.63;63.57
13767;BME280;47980;48.794;9.176;2023-04-19T09:16:51;98626.84;;;13.83;63.23
13767;BME280;47980;48.794;9.176;2023-04-19T09:19:23;98626.66;;;13.88;61.87
13767;BME280;47980;48.794;9.176;2023-04-19T09:21:54;98624.97;;;14.08;61.63
13767;BME280;47980;48.794;9.176;2023-04-19T09:24:38;98625.59;;;14.41;60.53
13767;BME280;47980;48.794;9.176;2023-04-19T09:27:10;98626.53;;;13.84;62.95
13767;BME280;47980;48.794;9.176;2023-04-19T09:29:51;98620.31;;;13.80;63.43
13767;BME280;47980;48.794;9.176;2023-04-19T09:32:25;98620.69;;;13.45;64.24
13767;BME280;47980;48.794;9.176;2023-04-19T09:34:58;98606.59;;;13.45;63.98
13767;BME280;47980;48.794;9.176;2023-04-19T09:37:30;98611.63;;;13.59;62.79
13767;BME280;47980;48.794;9.176;2023-04-19T09:40:20;98602.63;;;13.63;63.35
13767;BME280;47980;48.794;9.176;2023-04-19T09:42:53;98614.66;;;14.71;59.85
13767;BME280;47980;48.794;9.176;2023-04-19T09:45:25;98608.06;;;14.28;61.97
13767;BME280;47980;48.794;9.176;2023-04-19T09:48:01;98606.72;;;14.34;60.45
13767;BME280;47980;48.794;9.176;2023-04-19T09:50:33;98584.47;;;14.83;60.08
13767;BME280;47980;48.794;9.176;2023-04-19T09:53:05;98585.34;;;15.47;58.74
13767;BME280;47980;48.794;9.176;2023-04-19T09:55:37;98602.13;;;15.15;58.69
13767;BME280;47980;48.794;9.176;2023-04-19T09:58:10;98590.75;;;15.19;56.94
13767;BME280;47980;48.794;9.176;2023-04-19T10:00:43;98589.91;;;15.14;56.00
13767;BME280;47980;48.794;9.176;2023-04-19T10:03:18;98593.41;;;14.75;57.97
13767;BME280;47980;48.794;9.176;2023-04-19T10:05:51;98580.75;;;15.31;56.37
13767;BME280;47980;48.794;9.176;2023-04-19T10:08:23;98587.72;;;15.04;56.90
13767;BME280;47980;48.794;9.176;2023-04-19T10:10:56;98580.09;;;14.90;57.27
13767;BME280;47980;48.794;9.176;2023-04-19T10:13:27;98577.03;;;15.04;58.37
13767;BME280;47980;48.794;9.176;2023-04-19T10:15:59;98573.59;;;14.76;58.01
13767;BME280;47980;48.794;9.176;2023-04-19T10:18:35;98584.56;;;14.46;59.55
13767;BME280;47980;48.794;9.176;2023-04-19T10:21:07;98576.78;;;14.53;60.24
13767;BME280;47980;48.794;9.176;2023-04-19T10:23:41;98561.53;;;14.41;60.51
13767;BME280;47980;48.794;9.176;2023-04-19T10:26:12;98570.56;;;15.05;59.43
13767;BME280;47980;48.794;9.176;2023-04-19T10:28:46;98568.31;;;14.63;60.96
13767;BME280;47980;48.794;9.176;2023-04-19T10:31:19;98576.88;;;14.44;62.11
13767;BME280;47980;48.794;9.176;2023-04-19T10:33:56;98551.66;;;14.42;61.62
13767;BME280;47980;48.794;9.176;2023-04-19T10:36:32;98567.56;;;14.79;60.34
13767;BME280;47980;48.794;9.176;2023-04-19T10:39:38;98561.00;;;14.76;60.63
13767;BME280;47980;48.794;9.176;2023-04-19T10:42:10;98559.16;;;14.92;61.10
13767;BME280;47980;48.794;9.176;2023-04-19T10:47:56;98558.63;;;14.06;61.80
13767;BME280;47980;48.794;9.176;2023-04-19T10:50:29;98553.72;;;13.96;63.24
13767;BME280;47980;48.794;9.176;2023-04-19T10:53:44;98550.06;;;14.13;62.42
13767;BME280;47980;48.794;9.176;2023-04-19T10:56:18;98543.13;;;14.24;63.32
13767;BME280;47980;48.794;9.176;2023-04-19T10:59:11;98539.28;;;14.09;62.78
13767;BME280;47980;48.794;9.176;2023-04-19T11:01:53;98539.00;;;14.27;62.32
13767;BME280;47980;48.794;9.176;2023-04-19T11:05:37;98531.13;;;14.18;62.96
13767;BME280;47980;48.794;9.176;2023-04-19T11:08:07;98523.13;;;14.18;63.09
13767;BME280;47980;48.794;9.176;2023-04-19T11:10:40;98524.19;;;13.89;63.35
13767;BME280;47980;48.794;9.176;2023-04-19T11:13:22;98519.31;;;13.42;64.27
13767;BME280;47980;48.794;9.176;2023-04-19T11:15:57;98516.88;;;13.73;63.51
13767;BME280;47980;48.794;9.176;2023-04-19T11:18:39;98521.19;;;13.29;66.20
13767;BME280;47980;48.794;9.176;2023-04-19T11:21:19;98517.34;;;13.06;68.46
13767;BME280;47980;48.794;9.176;2023-04-19T11:24:10;98526.47;;;13.17;68.01
13767;BME280;47980;48.794;9.176;2023-04-19T11:26:48;98516.13;;;12.70;70.12
13767;BME280;47980;48.794;9.176;2023-04-19T11:29:36;98526.66;;;12.66;70.69
13767;BME280;47980;48.794;9.176;2023-04-19T11:35:07;98521.22;;;12.63;71.91
13767;BME280;47980;48.794;9.176;2023-04-19T11:37:39;98514.44;;;12.53;73.67
13767;BME280;47980;48.794;9.176;2023-04-19T11:40:15;98513.31;;;12.54;72.40
13767;BME280;47980;48.794;9.176;2023-04-19T11:46:15;98501.03;;;12.62;74.20
13767;BME280;47980;48.794;9.176;2023-04-19T11:49:05;98505.19;;;12.50;74.73
13767;BME280;47980;48.794;9.176;2023-04-19T11:51:41;98505.94;;;12.72;75.35
13767;BME280;47980;48.794;9.176;2023-04-19T11:54:15;98507.56;;;12.31;76.09
13767;BME280;47980;48.794;9.176;2023-04-19T11:57:04;98510.28;;;12.22;77.92
13767;BME280;47980;48.794;9.176;2023-04-19T11:59:36;98511.06;;;12.23;79.62
13767;BME280;47980;48.794;9.176;2023-04-19T12:02:09;98507.66;;;11.93;84.58
13767;BME280;47980;48.794;9.176;2023-04-19T12:04:41;98509.81;;;11.70;88.10
13767;BME280;47980;48.794;9.176;2023-04-19T12:07:12;98504.28;;;11.84;87.94
13767;BME280;47980;48.794;9.176;2023-04-19T12:09:47;98502.41;;;11.84;88.91
13767;BME280;47980;48.794;9.176;2023-04-19T12:12:31;98502.50;;;11.96;87.96
13767;BME280;47980;48.794;9.176;2023-04-19T12:15:04;98502.38;;;12.14;87.39
13767;BME280;47980;48.794;9.176;2023-04-19T12:17:57;98499.22;;;11.91;88.78
13767;BME280;47980;48.794;9.176;2023-04-19T12:20:30;98503.47;;;11.92;89.91
13767;BME280;47980;48.794;9.176;2023-04-19T12:23:02;98502.34;;;11.93;89.70
13767;BME280;47980;48.794;9.176;2023-04-19T12:25:33;98500.53;;;11.55;89.46
13767;BME280;47980;48.794;9.176;2023-04-19T12:28:07;98492.44;;;11.72;92.25
13767;BME280;47980;48.794;9.176;2023-04-19T12:30:39;98495.09;;;11.43;92.19
13767;BME280;47980;48.794;9.176;2023-04-19T12:33:11;98498.16;;;11.24;94.43
13767;BME280;47980;48.794;9.176;2023-04-19T12:35:42;98490.13;;;11.32;92.13
13767;BME280;47980;48.794;9.176;2023-04-19T12:38:14;98494.84;;;11.27;92.47
13767;BME280;47980;48.794;9.176;2023-04-19T12:40:50;98494.63;;;11.02;95.53
13767;BME280;47980;48.794;9.176;2023-04-19T12:43:23;98491.66;;;11.04;94.67
13767;BME280;47980;48.794;9.176;2023-04-19T12:45:55;98488.84;;;11.09;91.72
13767;BME280;47980;48.794;9.176;2023-04-19T12:48:27;98488.19;;;11.12;92.36
13767;BME280;47980;48.794;9.176;2023-04-19T12:50:59;98483.19;;;11.19;92.76
13767;BME280;47980;48.794;9.176;2023-04-19T12:53:30;98483.25;;;11.40;90.36
13767;BME280;47980;48.794;9.176;2023-04-19T12:56:02;98487.53;;;11.53;87.28
13767;BME280;47980;48.794;9.176;2023-04-19T12:58:35;98485.56;;;11.42;87.30
13767;BME280;47980;48.794;9.176;2023-04-19T13:01:07;98482.00;;;11.38;88.85
13767;BME280;47980;48.794;9.176;2023-04-19T13:03:38;98478.06;;;11.44;87.87
13767;BME280;47980;48.794;9.176;2023-04-19T13:06:10;98481.94;;;11.46;90.29
13767;BME280;47980;48.794;9.176;2023-04-19T13:08:44;98483.19;;;11.49;87.02
13767;BME280;47980;48.794;9.176;2023-04-19T13:11:15;98485.84;;;11.49;85.99
13767;BME280;47980;48.794;9.176;2023-04-19T13:13:53;98475.28;;;11.02;87.97
13767;BME280;47980;48.794;9.176;2023-04-19T13:16:25;98477.16;;;11.01;88.39
13767;BME280;47980;48.794;9.176;2023-04-19T13:18:56;98479.75;;;11.10;84.99
13767;BME280;47980;48.794;9.176;2023-04-19T13:21:28;98476.44;;;11.22;85.96
13767;BME280;47980;48.794;9.176;2023-04-19T13:23:59;98471.59;;;11.24;86.80
13767;BME280;47980;48.794;9.176;2023-04-19T13:26:31;98463.16;;;11.22;84.57
13767;BME280;47980;48.794;9.176;2023-04-19T13:29:04;98464.78;;;11.05;83.31
13767;BME280;47980;48.794;9.176;2023-04-19T13:31:37;98468.97;;;11.15;82.86
13767;BME280;47980;48.794;9.176;2023-04-19T13:34:09;98461.75;;;11.54;82.22
13767;BME280;47980;48.794;9.176;2023-04-19T13:36:40;98459.56;;;11.56;81.05
13767;BME280;47980;48.794;9.176;2023-04-19T13:39:13;98455.63;;;11.62;80.72
13767;BME280;47980;48.794;9.176;2023-04-19T13:41:45;98444.59;;;11.72;79.42